Fremantle, Australia
Current Conditions -  °F | °C
As of 1:00 PM on Wednesday 22 Oct 2014 (Local Time) from YPJT Reporting Station
Scattered Clouds Scattered Clouds  
Wind Chill: 84°   Ceiling: Unl
Heat Index: 84°   Visibility: 6mi
Dew Point: 50°   Wind: 24mph
Humidity: 30%   Direction: 300°WNW
Pressure: 29.83"   Gusts: NA
Location:  32.05°S, 115.75°E
Report Text: YPJT 220500Z AUTO 30021KT 290V010 9999 // SCT092 29/10 Q1010
Loading
Personal Weather Stations






























Interactive Weather Map
Tropical Storm Tracking
New forecast layout! Learn more

10-Day Weather Forecast

Advertisements
Track Severe Weather on mobile